Lafayette Springs, Mississippi
Current Conditions -  °F | °C
As of 5:55 PM on Monday 22 Dec 2014 (Local Time) from KUOX Reporting Station
Haze Haze  
Wind Chill: 54°   Ceiling: 300
Heat Index: 54°   Visibility: 3mi
Dew Point: 52°   Wind: 12mph
Humidity: 94%   Direction: 140°SE
Pressure: 29.67"   Gusts: NA
Location:  34.3453°N, 89.396°W
Report Text: KUOX 222355Z AUTO 14010KT 3SM BR OVC003 12/11 A2967 RMK AO2 PWINO PNO
Loading
Personal Weather Stations






























Interactive Weather Map New forecast layout! Learn more

10-Day Weather Forecast

Advertisements
Track Severe Weather on mobile